Time;durP1;ratioP1;P1;durP2;ratioP2;P2;SDS_P1;SDS_P2;PMS_P1;PMS_P2;Temp;Humidity;BMP_temperature;BMP_pressure;BME280_temperature;BME280_humidity;BME280_pressure;Samples;Min_cycle;Max_cycle;Signal;HPM_P1;HPM_P2
2022/08/13 00:01:51;;;;;;;1.90;1.57;;;18.70;99.90;;;;;;5053237;28;20049;-68
2022/08/13 00:04:17;;;;;;;2.70;2.05;;;18.70;99.90;;;;;;5052870;28;20084;-69
2022/08/13 00:09:14;;;;;;;6.07;2.38;;;18.60;99.90;;;;;;5053020;28;20106;-68
2022/08/13 00:14:31;;;;;;;3.20;2.35;;;18.60;99.90;;;;;;5052970;28;20063;-68
2022/08/13 00:16:58;;;;;;;5.18;2.33;;;18.60;99.90;;;;;;5052950;28;20464;-68
2022/08/13 00:19:30;;;;;;;3.40;2.22;;;18.50;99.90;;;;;;5052824;28;20047;-69
2022/08/13 00:21:57;;;;;;;3.45;2.20;;;18.40;99.90;;;;;;5052626;28;20055;-69
2022/08/13 00:24:23;;;;;;;2.85;2.22;;;18.30;99.90;;;;;;5052383;28;20111;-68
2022/08/13 00:26:49;;;;;;;3.33;2.30;;;18.20;99.90;;;;;;5052826;28;20382;-68
2022/08/13 00:29:15;;;;;;;3.92;2.42;;;18.10;99.90;;;;;;5052580;28;20067;-69
2022/08/13 00:31:43;;;;;;;5.88;2.60;;;18.00;99.90;;;;;;5052809;28;20037;-69
2022/08/13 00:34:09;;;;;;;2.63;1.88;;;18.00;99.90;;;;;;5052528;28;20063;-69
2022/08/13 00:36:35;;;;;;;3.33;2.00;;;17.90;99.90;;;;;;5052776;28;20041;-69
2022/08/13 00:39:06;;;;;;;2.47;2.08;;;17.90;99.90;;;;;;5052722;28;20049;-69
2022/08/13 00:41:38;;;;;;;4.80;1.95;;;17.90;99.90;;;;;;5052404;28;20174;-68
2022/08/13 00:44:08;;;;;;;6.82;2.58;;;17.80;99.90;;;;;;5034630;28;20428;-69
2022/08/13 00:46:34;;;;;;;;;;;17.70;99.90;;;;;;5034811;28;20404;-69
2022/08/13 00:49:04;;;;;;;4.22;2.58;;;17.70;99.90;;;;;;5052686;28;19967;-69
2022/08/13 00:51:33;;;;;;;5.72;2.72;;;17.70;99.90;;;;;;5052642;28;20432;-69
2022/08/13 00:54:02;;;;;;;2.55;1.73;;;17.70;99.90;;;;;;5052289;28;20041;-69
2022/08/13 00:56:31;;;;;;;2.47;1.85;;;17.80;99.90;;;;;;5052271;28;20052;-69
2022/08/13 00:58:59;;;;;;;3.20;2.28;;;17.80;99.90;;;;;;5034482;28;20045;-69
2022/08/13 01:01:25;;;;;;;2.95;2.03;;;17.70;99.90;;;;;;5052230;28;20099;-71
2022/08/13 01:03:52;;;;;;;4.28;2.50;;;17.70;99.90;;;;;;5052547;28;20091;-69
2022/08/13 01:06:18;;;;;;;5.20;2.72;;;17.70;99.90;;;;;;5052420;28;20048;-70
2022/08/13 01:08:46;;;;;;;3.83;2.45;;;17.60;99.90;;;;;;5054699;28;20453;-69
2022/08/13 01:11:14;;;;;;;4.95;2.72;;;17.60;99.90;;;;;;5056072;28;20158;-68
2022/08/13 01:13:43;;;;;;;4.43;2.35;;;17.60;99.90;;;;;;5056137;28;20433;-68
2022/08/13 01:16:13;;;;;;;4.07;2.37;;;17.50;99.90;;;;;;5056158;28;20103;-68
2022/08/13 01:18:51;;;;;;;4.85;2.63;;;17.50;99.90;;;;;;5055743;28;20041;-67
2022/08/13 01:21:22;;;;;;;4.28;2.72;;;17.40;99.90;;;;;;5056044;28;20451;-67
2022/08/13 01:23:51;;;;;;;3.42;2.63;;;17.50;99.90;;;;;;5055547;28;20144;-68
2022/08/13 01:26:18;;;;;;;2.75;2.10;;;17.50;99.90;;;;;;5055784;28;20045;-67
2022/08/13 01:28:46;;;;;;;5.05;2.70;;;17.40;99.90;;;;;;5037950;28;20045;-67
2022/08/13 01:31:15;;;;;;;3.08;2.38;;;17.50;99.90;;;;;;5056119;28;20029;-67
2022/08/13 01:33:43;;;;;;;3.35;2.50;;;17.40;99.90;;;;;;5055297;28;20048;-67
2022/08/13 01:36:10;;;;;;;5.05;3.38;;;17.30;99.90;;;;;;5081872;22;20076;-72
2022/08/13 01:38:38;;;;;;;3.15;2.35;;;17.30;99.90;;;;;;5057793;28;20044;-74
2022/08/13 01:41:08;;;;;;;2.88;2.20;;;17.30;99.90;;;;;;5057601;28;20101;-73
2022/08/13 01:43:37;;;;;;;4.03;2.88;;;17.30;99.90;;;;;;5057697;28;20407;-71
2022/08/13 01:46:04;;;;;;;3.88;2.55;;;17.20;99.90;;;;;;5024632;28;20133;-80
2022/08/13 01:51:23;;;;;;;3.58;2.42;;;17.20;99.90;;;;;;5057587;28;20415;-80
2022/08/13 01:53:58;;;;;;;4.18;2.65;;;17.10;99.90;;;;;;5041117;28;20047;-72
2022/08/13 01:56:26;;;;;;;3.60;2.58;;;17.10;99.90;;;;;;5057718;28;20487;-72
2022/08/13 01:58:54;;;;;;;3.80;2.63;;;17.10;99.90;;;;;;5057382;28;20083;-80
2022/08/13 02:01:25;;;;;;;4.05;2.75;;;17.00;99.90;;;;;;5057377;28;20131;-73
2022/08/13 02:04:01;;;;;;;4.75;2.80;;;17.00;99.90;;;;;;5041026;28;20548;-75
2022/08/13 02:06:31;;;;;;;4.88;3.25;;;17.00;99.90;;;;;;5040873;28;20479;-75
2022/08/13 02:09:00;;;;;;;3.33;2.70;;;16.90;99.90;;;;;;5040546;28;20036;-72
2022/08/13 02:11:29;;;;;;;4.65;2.97;;;16.90;99.90;;;;;;5040902;28;20037;-71
2022/08/13 02:13:56;;;;;;;6.18;3.05;;;16.90;99.90;;;;;;5057136;28;20040;-74
2022/08/13 02:16:22;;;;;;;3.17;2.60;;;16.90;99.90;;;;;;5057159;28;20048;-80
2022/08/13 02:18:53;;;;;;;4.95;3.63;;;16.80;99.90;;;;;;5023676;28;20403;-79
2022/08/13 02:21:22;;;;;;;5.53;3.40;;;16.80;99.90;;;;;;5024416;28;20154;-73
2022/08/13 02:23:56;;;;;;;5.90;3.47;;;16.70;99.90;;;;;;5056932;28;20044;-73
2022/08/13 02:26:27;;;;;;;5.07;3.55;;;16.80;99.90;;;;;;5023958;28;20037;-72
2022/08/13 02:28:58;;;;;;;5.72;3.53;;;16.80;99.90;;;;;;5040416;28;20509;-72
2022/08/13 02:31:26;;;;;;;4.22;3.00;;;16.90;99.90;;;;;;5040221;28;20045;-72
2022/08/13 02:33:52;;;;;;;5.18;3.15;;;16.80;99.90;;;;;;5040400;28;20048;-73
2022/08/13 02:36:21;;;;;;;4.93;3.13;;;16.90;99.90;;;;;;5056756;28;20052;-80
2022/08/13 02:39:04;;;;;;;4.32;2.92;;;16.80;99.90;;;;;;5073371;28;20400;-73
2022/08/13 02:41:40;;;;;;;3.67;2.60;;;16.80;99.90;;;;;;5056599;28;20055;-72
2022/08/13 02:44:10;;;;;;;5.47;3.22;;;16.80;99.90;;;;;;5056573;28;20044;-80
2022/08/13 02:46:40;;;;;;;5.38;3.53;;;16.80;99.90;;;;;;5056445;28;20040;-75
2022/08/13 02:49:06;;;;;;;3.73;2.70;;;16.80;99.90;;;;;;5056465;28;20151;-75
2022/08/13 02:51:32;;;;;;;4.78;3.30;;;16.80;99.90;;;;;;5056700;28;20353;-79
2022/08/13 02:54:01;;;;;;;4.65;2.88;;;16.80;99.90;;;;;;5039949;28;20037;-72
2022/08/13 02:56:28;;;;;;;5.05;3.05;;;16.80;99.90;;;;;;5039682;28;20041;-73
2022/08/13 02:58:56;;;;;;;4.82;2.95;;;16.70;99.90;;;;;;5023479;28;20037;-73
2022/08/13 03:01:24;;;;;;;3.22;2.38;;;16.70;99.90;;;;;;5056540;28;20088;-73
2022/08/13 03:03:50;;;;;;;5.03;2.67;;;16.70;99.90;;;;;;5056408;28;20036;-74
2022/08/13 03:06:19;;;;;;;6.13;3.30;;;16.70;99.90;;;;;;5022966;28;20398;-72
2022/08/13 03:08:46;;;;;;;4.45;2.75;;;16.70;99.90;;;;;;5039591;28;20040;-73
2022/08/13 03:11:12;;;;;;;6.95;2.88;;;16.60;99.90;;;;;;5056263;28;20037;-72
2022/08/13 03:13:40;;;;;;;4.60;3.08;;;16.60;99.90;;;;;;5056226;28;20036;-72
2022/08/13 03:16:07;;;;;;;4.60;2.88;;;16.60;99.90;;;;;;5055849;28;20080;-72
2022/08/13 03:18:33;;;;;;;5.80;3.70;;;16.60;99.90;;;;;;5055930;28;20119;-73
2022/08/13 03:20:59;;;;;;;5.07;3.10;;;16.60;99.90;;;;;;5056042;28;20501;-76
2022/08/13 03:23:27;;;;;;;4.03;2.60;;;16.60;99.90;;;;;;5039373;28;20071;-79
2022/08/13 03:25:53;;;;;;;4.63;2.75;;;16.60;99.90;;;;;;5023236;28;20043;-73
2022/08/13 03:28:19;;;;;;;3.40;2.78;;;16.50;99.90;;;;;;5055723;28;20052;-73
2022/08/13 03:30:46;;;;;;;4.00;3.08;;;16.50;99.90;;;;;;5021984;28;20128;-72
2022/08/13 03:33:13;;;;;;;6.97;3.33;;;16.40;99.90;;;;;;5023149;28;20123;-73
2022/08/13 03:35:40;;;;;;;4.30;2.83;;;16.40;99.90;;;;;;5055470;28;20384;-76
2022/08/13 03:38:11;;;;;;;6.00;3.30;;;16.40;99.90;;;;;;5055825;28;20139;-81
2022/08/13 03:43:22;;;;;;;5.53;3.42;;;16.40;99.90;;;;;;5055492;28;19974;-72
2022/08/13 03:45:48;;;;;;;4.47;3.22;;;16.40;99.90;;;;;;5038738;28;20040;-72
2022/08/13 03:48:15;;;;;;;4.13;3.08;;;16.30;99.90;;;;;;5055374;28;20066;-80
2022/08/13 03:50:46;;;;;;;7.95;3.13;;;16.20;99.90;;;;;;5038788;28;20051;-73
2022/08/13 03:53:12;;;;;;;5.55;3.35;;;16.20;99.90;;;;;;5038632;28;20048;-73
2022/08/13 03:55:39;;;;;;;4.82;3.10;;;16.30;99.90;;;;;;5038664;28;20036;-73
2022/08/13 03:58:06;;;;;;;5.05;3.40;;;16.30;99.90;;;;;;5038577;28;20037;-80
2022/08/13 04:00:34;;;;;;;6.13;3.85;;;16.30;99.90;;;;;;5022609;28;20059;-72
2022/08/13 04:03:00;;;;;;;6.50;3.53;;;16.20;99.90;;;;;;5055111;28;20040;-75
2022/08/13 04:05:26;;;;;;;4.72;3.38;;;16.20;99.90;;;;;;5055051;28;20044;-80
2022/08/13 04:07:53;;;;;;;5.07;3.55;;;16.10;99.90;;;;;;5054985;28;20040;-76
2022/08/13 04:10:19;;;;;;;4.63;3.63;;;16.20;99.90;;;;;;5055088;28;20045;-73
2022/08/13 04:12:46;;;;;;;5.07;3.38;;;16.10;99.90;;;;;;5038470;28;20129;-72
2022/08/13 04:15:11;;;;;;;5.60;3.22;;;16.10;99.90;;;;;;5055055;28;20048;-76
2022/08/13 04:17:38;;;;;;;6.00;3.55;;;16.20;99.90;;;;;;5054963;28;20434;-76
2022/08/13 04:20:06;;;;;;;5.80;3.78;;;16.10;99.90;;;;;;5054896;28;20105;-80
2022/08/13 04:22:33;;;;;;;4.97;3.35;;;16.10;99.90;;;;;;5038332;28;20110;-72
2022/08/13 04:24:59;;;;;;;5.00;3.35;;;16.10;99.90;;;;;;5038418;28;20044;-73
2022/08/13 04:27:25;;;;;;;4.97;3.00;;;16.10;99.90;;;;;;5054935;28;20502;-76
2022/08/13 04:29:53;;;;;;;4.72;3.28;;;16.10;99.90;;;;;;5038395;28;20044;-72
2022/08/13 04:32:20;;;;;;;5.18;3.38;;;16.20;99.90;;;;;;5055094;28;20068;-80
2022/08/13 04:34:46;;;;;;;4.82;3.28;;;16.20;99.90;;;;;;5038283;28;20080;-80
2022/08/13 04:37:11;;;;;;;4.82;3.28;;;16.20;99.90;;;;;;5054733;28;20136;-73
2022/08/13 04:39:37;;;;;;;3.78;2.90;;;16.20;99.90;;;;;;5038474;28;20082;-76
2022/08/13 04:42:03;;;;;;;4.45;3.45;;;16.20;99.90;;;;;;5056462;28;20044;-79
2022/08/13 04:44:29;;;;;;;5.90;3.65;;;16.20;99.90;;;;;;5042391;28;20040;-80
2022/08/13 04:46:55;;;;;;;5.55;3.33;;;16.20;99.90;;;;;;5042227;28;20567;-79
2022/08/13 04:49:20;;;;;;;6.80;3.22;;;16.30;99.90;;;;;;5058787;28;20127;-81
2022/08/13 04:51:46;;;;;;;5.30;3.00;;;16.30;99.90;;;;;;5042021;28;20478;-73
2022/08/13 04:54:12;;;;;;;8.25;3.45;;;16.30;99.90;;;;;;5042139;28;20093;-80
2022/08/13 04:56:38;;;;;;;5.05;3.42;;;16.30;99.90;;;;;;5041962;28;20487;-73
2022/08/13 04:59:04;;;;;;;5.53;3.30;;;16.40;99.90;;;;;;5041933;28;20534;-73
2022/08/13 05:01:30;;;;;;;6.90;3.80;;;16.30;99.90;;;;;;5058482;28;20080;-73
2022/08/13 05:03:56;;;;;;;4.28;3.70;;;16.40;99.90;;;;;;5025327;28;20082;-80
2022/08/13 05:06:22;;;;;;;3.97;2.85;;;16.40;99.90;;;;;;5041973;28;20503;-73
2022/08/13 05:08:49;;;;;;;6.78;3.40;;;16.50;99.90;;;;;;5058325;28;20123;-73
2022/08/13 05:11:18;;;;;;;4.10;2.67;;;16.50;99.90;;;;;;5058308;28;20036;-80
2022/08/13 05:13:45;;;;;;;6.78;3.45;;;16.50;99.90;;;;;;5025435;28;20036;-73
2022/08/13 05:16:15;;;;;;;4.13;2.97;;;16.50;99.90;;;;;;5041686;28;20063;-74
2022/08/13 05:18:45;;;;;;;4.43;3.25;;;16.50;99.90;;;;;;5058507;28;20501;-73
2022/08/13 05:21:13;;;;;;;10.40;3.65;;;16.60;99.90;;;;;;5041547;28;20048;-80
2022/08/13 05:23:41;;;;;;;4.68;3.45;;;16.60;99.90;;;;;;5058449;28;20509;-71
2022/08/13 05:26:07;;;;;;;4.20;2.88;;;16.70;99.90;;;;;;5042688;28;20044;-75
2022/08/13 05:28:34;;;;;;;8.60;4.25;;;16.70;99.90;;;;;;5060057;28;20044;-72
2022/08/13 05:31:00;;;;;;;4.20;2.88;;;16.80;99.90;;;;;;5059897;28;20064;-75
2022/08/13 05:33:28;;;;;;;4.85;3.33;;;16.80;99.90;;;;;;5041541;28;20041;-71
2022/08/13 05:35:56;;;;;;;4.57;3.03;;;16.90;99.90;;;;;;5042033;28;20052;-71
2022/08/13 05:38:23;;;;;;;3.80;2.75;;;17.00;99.90;;;;;;5058476;28;20055;-75
2022/08/13 05:40:51;;;;;;;4.03;3.03;;;17.10;99.90;;;;;;5058548;28;20467;-75
2022/08/13 05:43:19;;;;;;;6.47;3.47;;;17.20;99.90;;;;;;5041286;28;20040;-75
2022/08/13 05:45:57;;;;;;;5.32;3.92;;;17.30;99.90;;;;;;5059276;28;20083;-75
2022/08/13 05:48:26;;;;;;;4.55;3.08;;;17.30;99.90;;;;;;5060661;28;20126;-72
2022/08/13 05:50:52;;;;;;;4.32;2.67;;;17.80;99.90;;;;;;5058403;28;20085;-76
2022/08/13 05:53:18;;;;;;;5.03;3.05;;;17.60;99.90;;;;;;5058258;28;20403;-71
2022/08/13 05:55:44;;;;;;;4.80;3.00;;;17.60;99.90;;;;;;5041707;28;20036;-75
2022/08/13 05:58:12;;;;;;;3.50;3.00;;;17.70;99.90;;;;;;5040706;28;20484;-72
2022/08/13 06:03:27;;;;;;;6.13;3.60;;;17.90;99.90;;;;;;5058348;28;20048;-76
2022/08/13 06:05:58;;;;;;;5.33;3.23;;;18.00;99.90;;;;;;5057896;28;20044;-79
2022/08/13 06:08:30;;;;;;;5.50;2.97;;;18.10;99.90;;;;;;5057090;28;20294;-75
2022/08/13 06:11:01;;;;;;;5.50;3.63;;;18.20;99.90;;;;;;5057020;28;20090;-73
2022/08/13 06:13:28;;;;;;;4.43;3.60;;;18.30;99.90;;;;;;5040808;28;20069;-78
2022/08/13 06:16:01;;;;;;;4.10;3.20;;;18.50;99.90;;;;;;5040374;28;20040;-78
2022/08/13 06:18:32;;;;;;;5.75;3.35;;;18.70;99.90;;;;;;5057564;28;20071;-73
2022/08/13 06:21:02;;;;;;;5.35;3.40;;;18.70;99.90;;;;;;5024704;28;20126;-74
2022/08/13 06:23:30;;;;;;;6.47;3.47;;;18.90;99.90;;;;;;5057133;28;20040;-79
2022/08/13 06:25:56;;;;;;;4.93;3.55;;;19.00;99.90;;;;;;5023863;28;20048;-79
2022/08/13 06:28:26;;;;;;;5.47;3.33;;;19.20;99.90;;;;;;5056859;28;20055;-73
2022/08/13 06:31:00;;;;;;;4.90;3.60;;;19.30;99.90;;;;;;5040158;28;20038;-78
2022/08/13 06:33:30;;;;;;;6.47;3.83;;;19.50;99.90;;;;;;5056721;28;20040;-72
2022/08/13 06:36:04;;;;;;;8.07;3.92;;;19.70;99.90;;;;;;5039855;28;20064;-75
2022/08/13 06:38:42;;;;;;;4.85;3.00;;;19.80;99.90;;;;;;5056717;28;20048;-73
2022/08/13 06:41:10;;;;;;;5.25;3.10;;;20.00;99.90;;;;;;5039981;28;20051;-78
2022/08/13 06:43:40;;;;;;;4.15;2.78;;;20.10;99.90;;;;;;5056554;28;20045;-72
2022/08/13 06:46:07;;;;;;;2.90;2.50;;;20.40;99.90;;;;;;5039793;28;20086;-72
2022/08/13 06:48:34;;;;;;;6.28;3.15;;;20.50;99.90;;;;;;5040203;28;20050;-80
2022/08/13 06:51:07;;;;;;;3.40;2.83;;;20.60;99.90;;;;;;5040162;28;20082;-75
2022/08/13 06:53:35;;;;;;;5.63;2.90;;;20.80;99.90;;;;;;5039727;28;20105;-74
2022/08/13 06:56:07;;;;;;;3.38;2.67;;;20.90;99.90;;;;;;5039628;28;20094;-73
2022/08/13 06:58:34;;;;;;;3.97;2.70;;;21.10;99.90;;;;;;5056232;28;20036;-75
2022/08/13 07:01:01;;;;;;;4.30;2.38;;;21.20;99.90;;;;;;5039544;28;20048;-77
2022/08/13 07:03:28;;;;;;;6.63;2.35;;;21.40;99.90;;;;;;5056487;28;20044;-82
2022/08/13 07:05:56;;;;;;;2.75;2.30;;;21.50;99.90;;;;;;5022902;28;20131;-75
2022/08/13 07:08:24;;;;;;;4.32;2.40;;;21.70;99.90;;;;;;5039438;28;20040;-76
2022/08/13 07:11:21;;;;;;;5.68;2.53;;;21.80;99.90;;;;;;5056193;28;20037;-77
2022/08/13 07:13:43;;;;;;;4.35;2.45;;;22.00;99.90;;;;;;5056211;28;20052;-75
2022/08/13 07:16:11;;;;;;;2.60;2.25;;;22.20;99.90;;;;;;5039562;28;20048;-80
2022/08/13 07:18:37;;;;;;;5.00;2.55;;;22.30;99.90;;;;;;5056476;28;20076;-79
2022/08/13 07:21:09;;;;;;;3.83;2.00;;;22.50;99.90;;;;;;5039704;28;20101;-79
2022/08/13 07:23:36;;;;;;;2.65;2.17;;;22.60;99.90;;;;;;5056787;28;20037;-76
2022/08/13 07:26:03;;;;;;;3.08;1.90;;;22.80;99.90;;;;;;5055993;28;20044;-73
2022/08/13 07:28:30;;;;;;;2.58;1.60;;;22.90;99.90;;;;;;5055815;28;20093;-71
2022/08/13 07:30:56;;;;;;;3.83;2.28;;;23.10;99.90;;;;;;5039162;28;20033;-76
2022/08/13 07:33:23;;;;;;;2.25;1.77;;;23.20;99.90;;;;;;5022581;28;20473;-76
2022/08/13 07:35:48;;;;;;;2.97;1.55;;;23.40;99.90;;;;;;5055520;28;20045;-75
2022/08/13 07:38:15;;;;;;;2.00;1.40;;;23.50;99.90;;;;;;5056774;28;20049;-72
2022/08/13 07:40:44;;;;;;;1.95;1.40;;;23.70;99.90;;;;;;5058228;28;20048;-77
2022/08/13 07:43:12;;;;;;;1.85;1.40;;;23.80;99.90;;;;;;5057776;28;20123;-73
2022/08/13 07:45:39;;;;;;;1.65;1.40;;;24.00;99.90;;;;;;5059381;28;20044;-75
2022/08/13 07:48:06;;;;;;;1.63;1.20;;;24.10;99.90;;;;;;5055365;28;20048;-75
2022/08/13 07:50:33;;;;;;;1.92;1.33;;;24.30;99.90;;;;;;5055689;28;20530;-73
2022/08/13 07:52:59;;;;;;;1.67;1.30;;;24.40;99.90;;;;;;5055417;28;20043;-73
2022/08/13 07:55:27;;;;;;;1.55;1.45;;;24.50;99.90;;;;;;5038599;28;20045;-73
2022/08/13 07:57:54;;;;;;;1.50;1.20;;;24.60;99.90;;;;;;5055426;28;20483;-73
2022/08/13 08:00:26;;;;;;;2.03;1.23;;;24.80;99.90;;;;;;5038627;28;20078;-72
2022/08/13 08:03:01;;;;;;;1.55;1.20;;;24.90;99.90;;;;;;5038526;28;20048;-75
2022/08/13 08:05:31;;;;;;;2.05;1.13;;;25.00;99.80;;;;;;5038794;28;20043;-74
2022/08/13 08:07:59;;;;;;;1.80;1.30;;;25.10;99.90;;;;;;5055091;28;20040;-73
2022/08/13 08:10:25;;;;;;;3.78;1.20;;;25.20;99.90;;;;;;5055151;28;20051;-75
2022/08/13 08:12:51;;;;;;;2.15;1.10;;;25.30;99.90;;;;;;5055024;28;20040;-80
2022/08/13 08:15:19;;;;;;;1.88;1.10;;;25.40;99.90;;;;;;5038877;28;20040;-82
2022/08/13 08:17:45;;;;;;;1.40;1.10;;;25.50;99.90;;;;;;5038474;28;20149;-80
2022/08/13 08:20:23;;;;;;;1.70;1.20;;;25.60;99.80;;;;;;5022339;28;20072;-78
2022/08/13 08:22:50;;;;;;;6.43;1.35;;;25.70;99.50;;;;;;5055173;28;20511;-75
2022/08/13 08:25:18;;;;;;;2.03;1.17;;;25.80;98.90;;;;;;5022511;28;20048;-79
2022/08/13 08:27:44;;;;;;;1.50;1.08;;;26.00;98.60;;;;;;5038294;28;20037;-80
2022/08/13 08:30:15;;;;;;;1.85;1.10;;;26.10;97.60;;;;;;5038554;28;20102;-79
2022/08/13 08:32:42;;;;;;;1.10;0.90;;;26.10;97.30;;;;;;5055606;28;20045;-75
2022/08/13 08:35:08;;;;;;;0.90;0.82;;;26.20;96.60;;;;;;5021892;28;20098;-78
2022/08/13 08:43:10;;;;;;;1.92;1.08;;;26.60;96.60;;;;;;5055573;28;20098;-75
2022/08/13 08:45:36;;;;;;;1.00;0.90;;;26.70;94.80;;;;;;5022358;28;20469;-75
2022/08/13 08:48:03;;;;;;;4.10;0.90;;;26.80;95.70;;;;;;5071370;28;20137;-75
2022/08/13 08:50:29;;;;;;;3.53;0.98;;;26.80;93.70;;;;;;5021706;28;20037;-71
2022/08/13 08:55:42;;;;;;;0.57;0.57;;;27.00;93.90;;;;;;5054636;28;20060;-71
2022/08/13 08:58:11;;;;;;;1.38;0.80;;;27.20;97.50;;;;;;5038096;28;20041;-73
2022/08/13 09:00:39;;;;;;;1.00;0.80;;;;;;;;;;5054905;28;20040;-76
2022/08/13 09:03:06;;;;;;;1.40;1.13;;;27.30;93.50;;;;;;5037995;28;20040;-72
2022/08/13 09:05:32;;;;;;;1.20;0.77;;;27.40;93.10;;;;;;5038109;28;20049;-74
2022/08/13 09:08:01;;;;;;;1.00;0.90;;;27.50;92.20;;;;;;5054487;28;20047;-74
2022/08/13 09:10:27;;;;;;;1.50;0.70;;;27.50;92.10;;;;;;5054629;28;20033;-74
2022/08/13 09:12:52;;;;;;;1.20;0.82;;;27.50;92.90;;;;;;5037921;28;20119;-74
2022/08/13 09:15:21;;;;;;;1.27;0.80;;;27.50;92.40;;;;;;5021732;28;20543;-73
2022/08/13 09:17:52;;;;;;;2.20;1.00;;;27.60;91.20;;;;;;5038026;28;20037;-76
2022/08/13 09:20:23;;;;;;;1.13;0.95;;;27.60;90.80;;;;;;5054519;28;20127;-74
2022/08/13 09:23:12;;;;;;;3.00;0.90;;;27.70;91.40;;;;;;5054695;28;20055;-72
2022/08/13 09:25:48;;;;;;;1.33;0.88;;;27.70;90.60;;;;;;5037881;28;20041;-72
2022/08/13 09:28:17;;;;;;;0.95;0.80;;;27.70;90.90;;;;;;5054442;28;20049;-75
2022/08/13 09:30:45;;;;;;;0.85;0.70;;;27.70;90.50;;;;;;5025503;28;20564;-73
2022/08/13 09:33:12;;;;;;;1.58;0.90;;;27.90;90.90;;;;;;5058207;28;20037;-74
2022/08/13 09:35:39;;;;;;;0.75;0.70;;;27.90;89.00;;;;;;5041360;28;20114;-77
2022/08/13 09:38:06;;;;;;;1.40;0.80;;;27.90;90.40;;;;;;5041172;28;20060;-77
2022/08/13 09:40:38;;;;;;;1.10;0.80;;;;;;;;;;5057732;28;20040;-82
2022/08/13 09:43:08;;;;;;;1.23;0.90;;;;;;;;;;5058104;28;20048;-78
2022/08/13 09:45:34;;;;;;;;;;;;;;;;;;5058133;28;20105;-75
2022/08/13 09:48:00;;;;;;;3.55;0.93;;;;;;;;;;5057413;28;19922;-72
2022/08/13 09:50:26;;;;;;;1.88;1.10;;;;;;;;;;5041034;28;20037;-71
2022/08/13 09:52:56;;;;;;;0.93;0.77;;;;;;;;;;5041327;28;20040;-73
2022/08/13 09:55:22;;;;;;;0.70;0.70;;;;;;;;;;5057868;28;20381;-78
2022/08/13 09:58:08;;;;;;;1.20;0.90;;;;;;;;;;5057782;28;20040;-77
2022/08/13 10:00:34;;;;;;;1.08;0.95;;;;;;;;;;5057428;28;20055;-77
2022/08/13 10:03:02;;;;;;;2.33;0.80;;;;;;;;;;5024482;28;20046;-74
2022/08/13 10:05:32;;;;;;;1.48;0.82;;;;;;;;;;5057207;28;20110;-75
2022/08/13 10:08:00;;;;;;;1.35;0.85;;;28.90;81.90;;;;;;5057102;28;20075;-75
2022/08/13 10:10:26;;;;;;;1.70;0.80;;;29.00;82.20;;;;;;5057438;28;20050;-75
2022/08/13 10:12:52;;;;;;;1.73;0.85;;;29.00;81.90;;;;;;5057315;28;20491;-75
2022/08/13 10:15:18;;;;;;;2.20;1.10;;;29.00;82.10;;;;;;5040435;28;20037;-74
2022/08/13 10:17:55;;;;;;;1.20;0.95;;;29.10;82.10;;;;;;5056832;28;20049;-73
2022/08/13 10:20:33;;;;;;;1.27;1.00;;;29.20;79.30;;;;;;5057127;28;20373;-77
2022/08/13 10:23:01;;;;;;;1.20;1.00;;;29.10;79.80;;;;;;5057289;28;20052;-74
2022/08/13 10:25:28;;;;;;;1.40;0.90;;;29.10;80.80;;;;;;5040385;28;20038;-74
2022/08/13 10:27:55;;;;;;;0.95;0.90;;;29.10;79.50;;;;;;5056872;28;20039;-75
2022/08/13 10:30:26;;;;;;;1.45;0.85;;;29.20;80.20;;;;;;5057199;28;20044;-73
2022/08/13 10:32:56;;;;;;;0.80;0.65;;;29.20;79.80;;;;;;5057065;28;20036;-72
2022/08/13 10:35:25;;;;;;;1.08;0.85;;;29.20;80.20;;;;;;5057737;28;20060;-76
2022/08/13 10:37:56;;;;;;;0.98;0.82;;;29.20;80.80;;;;;;5040119;28;20048;-75
2022/08/13 10:40:23;;;;;;;2.20;0.90;;;29.20;80.50;;;;;;5056623;28;20063;-72
2022/08/13 10:42:51;;;;;;;1.00;0.90;;;29.30;78.00;;;;;;5056925;28;20087;-75
2022/08/13 10:45:24;;;;;;;0.95;0.70;;;29.20;77.30;;;;;;5039871;28;20071;-74
2022/08/13 10:47:57;;;;;;;1.90;1.00;;;29.20;73.50;;;;;;5024516;28;20049;-74
2022/08/13 10:50:30;;;;;;;1.63;1.10;;;29.20;75.70;;;;;;5040293;28;20407;-71
2022/08/13 10:52:57;;;;;;;0.98;0.77;;;29.20;74.10;;;;;;5041025;28;20047;-74
2022/08/13 10:55:24;;;;;;;1.02;0.82;;;29.30;77.70;;;;;;5039738;28;20451;-75
2022/08/13 10:57:50;;;;;;;1.45;1.02;;;29.20;75.40;;;;;;5039790;28;20045;-75
2022/08/13 11:00:16;;;;;;;1.17;0.98;;;29.20;77.20;;;;;;5056294;28;20048;-74
2022/08/13 11:02:49;;;;;;;0.90;0.70;;;29.30;76.60;;;;;;5039577;28;20045;-73
2022/08/13 11:05:16;;;;;;;1.42;1.00;;;29.20;74.80;;;;;;5056118;28;20044;-77
2022/08/13 11:07:45;;;;;;;1.70;0.82;;;29.30;74.40;;;;;;5039676;28;20048;-73
2022/08/13 11:10:12;;;;;;;0.85;0.80;;;29.20;76.70;;;;;;5056345;28;20036;-73
2022/08/13 11:12:38;;;;;;;0.75;0.68;;;29.30;75.50;;;;;;5056075;28;20090;-73
2022/08/13 11:15:07;;;;;;;0.90;0.77;;;29.20;75.70;;;;;;5056249;28;20040;-72
2022/08/13 11:17:34;;;;;;;1.73;0.83;;;29.20;75.40;;;;;;5056526;28;20048;-73
2022/08/13 11:20:06;;;;;;;1.15;0.90;;;29.20;74.10;;;;;;5039283;28;20102;-75
2022/08/13 11:22:33;;;;;;;1.10;0.80;;;29.20;72.10;;;;;;5056066;28;20054;-73
2022/08/13 11:25:01;;;;;;;1.00;0.90;;;29.20;74.40;;;;;;5055767;28;20560;-73
2022/08/13 11:27:27;;;;;;;2.22;0.90;;;29.10;74.10;;;;;;5056908;28;20044;-74
2022/08/13 11:29:53;;;;;;;0.95;0.80;;;29.20;73.60;;;;;;5055586;28;20033;-72
2022/08/13 11:32:20;;;;;;;2.33;0.90;;;29.20;73.40;;;;;;5038999;28;20032;-80
2022/08/13 11:34:45;;;;;;;1.73;1.00;;;29.20;74.10;;;;;;5039063;28;20036;-81
2022/08/13 11:37:11;;;;;;;1.70;0.80;;;29.30;74.30;;;;;;5032364;28;20061;-74
2022/08/13 11:39:37;;;;;;;2.00;0.85;;;29.40;73.60;;;;;;5015974;28;20044;-74
2022/08/13 11:42:03;;;;;;;1.25;1.00;;;29.40;73.60;;;;;;5032242;28;20407;-75
2022/08/13 11:44:29;;;;;;;2.17;0.90;;;29.40;74.00;;;;;;5032233;28;20132;-78
2022/08/13 11:46:55;;;;;;;1.42;1.05;;;29.40;73.10;;;;;;5031999;28;20160;-73
2022/08/13 11:49:21;;;;;;;2.03;1.00;;;29.10;73.20;;;;;;5016119;28;20048;-76
2022/08/13 11:51:48;;;;;;;1.23;0.90;;;29.10;73.60;;;;;;5015488;28;20052;-70
2022/08/13 11:54:14;;;;;;;1.50;1.00;;;29.20;72.50;;;;;;5016305;28;20087;-73
2022/08/13 11:56:40;;;;;;;2.35;1.00;;;29.20;72.40;;;;;;5032378;28;20053;-75
2022/08/13 11:59:06;;;;;;;0.98;0.82;;;29.20;71.30;;;;;;5031937;28;20426;-71
2022/08/13 12:01:32;;;;;;;0.73;0.60;;;29.30;72.60;;;;;;5015808;28;20108;-74
2022/08/13 12:03:58;;;;;;;1.00;0.85;;;29.40;73.40;;;;;;5015733;28;20049;-71
2022/08/13 12:06:23;;;;;;;1.10;0.88;;;29.40;72.50;;;;;;5032862;28;20084;-86
2022/08/13 12:08:49;;;;;;;1.25;0.90;;;29.50;73.50;;;;;;5016491;28;20091;-78
2022/08/13 12:11:15;;;;;;;1.40;1.00;;;29.60;70.50;;;;;;5031887;28;20048;-74
2022/08/13 12:13:41;;;;;;;0.95;0.80;;;29.70;73.10;;;;;;5015316;28;20090;-81
2022/08/13 12:16:06;;;;;;;1.30;0.90;;;29.80;71.30;;;;;;5015719;28;20401;-73
2022/08/13 12:18:32;;;;;;;1.10;1.00;;;29.90;72.90;;;;;;5015369;28;20046;-74
2022/08/13 12:20:58;;;;;;;1.20;1.08;;;29.90;73.30;;;;;;5032005;28;20488;-78
2022/08/13 12:23:23;;;;;;;1.30;0.90;;;29.90;71.80;;;;;;5015410;28;20394;-74
2022/08/13 12:25:49;;;;;;;3.10;1.00;;;29.90;71.20;;;;;;5032054;28;20435;-74
2022/08/13 12:28:19;;;;;;;0.88;0.82;;;29.90;71.10;;;;;;5031649;28;20045;-78
2022/08/13 12:30:48;;;;;;;1.90;0.98;;;29.90;69.20;;;;;;5015188;28;20072;-71
2022/08/13 12:33:15;;;;;;;1.83;1.23;;;30.00;72.40;;;;;;5031624;28;20037;-74
2022/08/13 12:35:40;;;;;;;1.10;1.00;;;30.00;72.20;;;;;;5017416;28;20045;-71
2022/08/13 12:38:09;;;;;;;1.13;0.88;;;30.20;71.20;;;;;;5015091;28;20132;-73
2022/08/13 12:40:35;;;;;;;1.25;0.95;;;30.30;71.20;;;;;;5016899;28;20045;-77
2022/08/13 12:43:01;;;;;;;1.00;0.90;;;30.40;70.70;;;;;;5031563;28;20037;-81
2022/08/13 12:45:27;;;;;;;2.47;1.58;;;30.50;71.80;;;;;;5031529;28;20507;-75
2022/08/13 12:47:52;;;;;;;1.35;0.82;;;30.50;69.30;;;;;;5015060;28;20116;-82
2022/08/13 12:50:18;;;;;;;2.85;1.10;;;30.60;70.60;;;;;;5032035;28;20048;-82
2022/08/13 12:52:44;;;;;;;1.73;1.17;;;30.40;68.30;;;;;;5031573;28;20076;-78
2022/08/13 12:55:10;;;;;;;1.13;1.02;;;30.40;71.30;;;;;;5031711;28;20441;-81
2022/08/13 12:57:38;;;;;;;1.65;1.30;;;30.30;70.20;;;;;;5031516;28;20408;-73
2022/08/13 13:00:10;;;;;;;1.67;1.15;;;30.20;70.50;;;;;;5015143;28;20049;-72
2022/08/13 13:02:39;;;;;;;1.75;1.17;;;30.20;70.80;;;;;;5016033;28;20042;-70
2022/08/13 13:05:06;;;;;;;1.63;1.20;;;30.00;71.90;;;;;;5035264;28;20053;-76
2022/08/13 13:07:32;;;;;;;1.98;1.30;;;30.00;72.40;;;;;;5018730;28;20546;-74
2022/08/13 13:10:02;;;;;;;2.03;1.00;;;30.10;71.70;;;;;;5018716;28;20049;-74
2022/08/13 13:12:28;;;;;;;;;;;30.20;69.90;;;;;;5035578;28;20072;-79
2022/08/13 13:14:54;;;;;;;1.00;0.93;;;30.30;69.20;;;;;;5035351;28;19917;-72
2022/08/13 13:17:19;;;;;;;1.52;1.00;;;30.40;69.80;;;;;;5035162;28;20045;-73